createdAt,value
2018-09-02T00:02:24.733Z,11.60
2018-09-02T00:04:56.456Z,11.50
2018-09-02T00:07:28.692Z,11.50
2018-09-02T00:10:01.273Z,11.50
2018-09-02T00:12:34.513Z,11.60
2018-09-02T00:15:02.523Z,11.50
2018-09-02T00:17:30.555Z,11.50
2018-09-02T00:19:58.827Z,11.50
2018-09-02T00:22:32.467Z,11.50
2018-09-02T00:25:16.234Z,11.60
2018-09-02T00:27:46.959Z,11.50
2018-09-02T00:30:18.055Z,11.50
2018-09-02T00:32:49.478Z,11.50
2018-09-02T00:35:20.964Z,11.50
2018-09-02T00:37:51.932Z,11.50
2018-09-02T00:40:23.071Z,11.50
2018-09-02T00:42:53.893Z,11.50
2018-09-02T00:45:25.085Z,11.50
2018-09-02T00:47:56.274Z,11.50
2018-09-02T00:50:24.499Z,11.50
2018-09-02T00:52:52.559Z,11.50
2018-09-02T00:55:22.606Z,11.50
2018-09-02T00:57:57.519Z,11.50
2018-09-02T01:00:27.521Z,11.50
2018-09-02T01:02:56.630Z,11.50
2018-09-02T01:05:24.727Z,11.50
2018-09-02T01:07:53.995Z,11.50
2018-09-02T01:10:22.379Z,11.50
2018-09-02T01:12:53.381Z,11.50
2018-09-02T01:15:24.412Z,11.50
2018-09-02T01:17:55.495Z,11.50
2018-09-02T01:20:26.112Z,11.50
2018-09-02T01:22:56.432Z,11.60
2018-09-02T01:25:32.312Z,11.60
2018-09-02T01:28:02.581Z,11.60
2018-09-02T01:30:39.203Z,11.60
2018-09-02T01:33:07.711Z,11.60
2018-09-02T01:35:37.559Z,11.60
2018-09-02T01:38:06.066Z,11.60
2018-09-02T01:40:34.873Z,11.60
2018-09-02T01:43:10.288Z,11.60
2018-09-02T01:45:40.801Z,11.60
2018-09-02T01:48:08.919Z,11.60
2018-09-02T01:50:43.828Z,11.60
2018-09-02T01:53:16.428Z,11.60
2018-09-02T01:55:51.104Z,11.60
2018-09-02T01:58:23.024Z,11.60
2018-09-02T02:00:54.354Z,11.60
2018-09-02T02:03:26.040Z,11.60
2018-09-02T02:05:56.995Z,11.60
2018-09-02T02:08:27.940Z,11.60
2018-09-02T02:10:56.896Z,11.60
2018-09-02T02:13:30.994Z,11.60
2018-09-02T02:16:00.750Z,11.60
2018-09-02T02:18:28.939Z,11.60
2018-09-02T02:20:59.504Z,11.60
2018-09-02T02:23:29.996Z,11.60
2018-09-02T02:26:00.953Z,11.60
2018-09-02T02:28:29.003Z,11.60
2018-09-02T02:30:57.246Z,11.60
2018-09-02T02:33:25.242Z,11.60
2018-09-02T02:35:53.327Z,11.60
2018-09-02T02:38:21.379Z,11.60
2018-09-02T02:40:49.476Z,11.60
2018-09-02T02:43:17.747Z,11.60
2018-09-02T02:45:45.850Z,11.60
2018-09-02T02:48:16.416Z,11.60
2018-09-02T02:50:50.064Z,11.60
2018-09-02T02:53:21.836Z,11.60
2018-09-02T02:55:54.318Z,11.50
2018-09-02T02:58:24.683Z,11.60
2018-09-02T03:00:55.085Z,11.50
2018-09-02T03:03:23.235Z,11.50
2018-09-02T03:05:53.559Z,11.50
2018-09-02T03:08:24.106Z,11.60
2018-09-02T03:11:11.397Z,11.50
2018-09-02T03:13:42.532Z,11.50
2018-09-02T03:16:25.438Z,11.60
2018-09-02T03:18:53.444Z,11.50
2018-09-02T03:21:21.496Z,11.60
2018-09-02T03:23:49.586Z,11.60
2018-09-02T03:26:24.448Z,11.60
2018-09-02T03:28:54.966Z,11.60
2018-09-02T03:31:22.999Z,11.60
2018-09-02T03:33:55.073Z,11.60
2018-09-02T03:36:27.081Z,11.60
2018-09-02T03:38:58.794Z,11.60
2018-09-02T03:41:31.524Z,11.60
2018-09-02T03:44:03.514Z,11.60
2018-09-02T03:46:35.566Z,11.60
2018-09-02T03:49:07.038Z,11.60
2018-09-02T03:51:38.203Z,11.60
2018-09-02T03:54:09.525Z,11.60
2018-09-02T03:56:41.729Z,11.70
2018-09-02T03:59:17.175Z,11.70
2018-09-02T04:01:45.251Z,11.60
2018-09-02T04:04:13.438Z,11.60
2018-09-02T04:06:41.614Z,11.60
2018-09-02T04:09:10.936Z,11.60
2018-09-02T04:11:39.342Z,11.60
2018-09-02T04:14:11.627Z,11.60
2018-09-02T04:16:47.432Z,11.60
2018-09-02T04:19:18.068Z,11.60
2018-09-02T04:21:46.242Z,11.60
2018-09-02T04:24:14.553Z,11.60
2018-09-02T04:26:42.607Z,11.60
2018-09-02T04:29:10.622Z,11.60
2018-09-02T04:31:38.844Z,11.60
2018-09-02T04:34:07.015Z,11.70
2018-09-02T04:36:35.190Z,11.70
2018-09-02T04:39:04.200Z,11.70
2018-09-02T04:41:32.377Z,11.70
2018-09-02T04:44:00.399Z,11.70
2018-09-02T04:46:28.401Z,11.70
2018-09-02T04:48:56.458Z,11.70
2018-09-02T04:51:24.547Z,11.70
2018-09-02T04:53:52.598Z,11.70
2018-09-02T04:56:20.706Z,11.70
2018-09-02T04:58:48.775Z,11.70
2018-09-02T05:01:16.842Z,11.70
2018-09-02T05:03:44.906Z,11.80
2018-09-02T05:06:13.194Z,11.80
2018-09-02T05:08:41.269Z,11.80
2018-09-02T05:11:09.410Z,11.80
2018-09-02T05:13:37.615Z,11.90
2018-09-02T05:16:05.878Z,11.90
2018-09-02T05:18:33.967Z,11.90
2018-09-02T05:21:02.015Z,11.90
2018-09-02T05:23:47.070Z,11.90
2018-09-02T05:26:15.159Z,11.90
2018-09-02T05:28:46.276Z,11.80
2018-09-02T05:31:18.131Z,11.80
2018-09-02T05:33:49.848Z,11.80
2018-09-02T05:36:21.675Z,11.80
2018-09-02T05:38:58.827Z,11.90
2018-09-02T05:41:26.994Z,11.90
2018-09-02T05:43:55.035Z,11.80
2018-09-02T05:46:23.003Z,11.90
2018-09-02T05:48:51.083Z,11.90
2018-09-02T05:51:19.165Z,11.90
2018-09-02T05:53:47.268Z,11.90
2018-09-02T05:56:15.337Z,11.90
2018-09-02T05:58:43.476Z,12.00
2018-09-02T06:01:11.674Z,12.10
2018-09-02T06:03:39.726Z,12.10
2018-09-02T06:06:07.884Z,12.20
2018-09-02T06:08:35.970Z,12.20
2018-09-02T06:11:04.133Z,12.10
2018-09-02T06:13:32.208Z,12.10
2018-09-02T06:16:11.589Z,12.20
2018-09-02T06:18:39.643Z,12.20
2018-09-02T06:21:07.694Z,12.20
2018-09-02T06:23:35.879Z,12.20
2018-09-02T06:26:11.040Z,12.20
2018-09-02T06:28:39.085Z,12.20
2018-09-02T06:31:07.187Z,12.20
2018-09-02T06:33:35.250Z,12.20
2018-09-02T06:36:03.438Z,12.40
2018-09-02T06:38:31.499Z,12.50
2018-09-02T06:40:59.563Z,12.60
2018-09-02T06:43:27.732Z,12.60
2018-09-02T06:45:55.810Z,12.70
2018-09-02T06:48:24.055Z,12.90
2018-09-02T06:50:52.163Z,13.10
2018-09-02T06:53:20.239Z,13.50
2018-09-02T06:55:48.387Z,13.90
2018-09-02T06:58:16.518Z,14.00
2018-09-02T07:00:44.571Z,14.00
2018-09-02T07:03:12.935Z,13.90
2018-09-02T07:05:41.886Z,13.80
2018-09-02T07:08:11.883Z,13.80
2018-09-02T07:10:40.553Z,13.70
2018-09-02T07:13:08.718Z,13.60
2018-09-02T07:15:37.013Z,13.30
2018-09-02T07:18:05.187Z,13.30
2018-09-02T07:20:34.095Z,13.30
2018-09-02T07:23:02.540Z,13.30
2018-09-02T07:25:31.250Z,13.20
2018-09-02T07:27:59.575Z,13.20
2018-09-02T07:30:28.061Z,13.20
2018-09-02T07:32:56.150Z,13.20
2018-09-02T07:35:24.438Z,13.30
2018-09-02T07:37:52.982Z,13.30
2018-09-02T07:40:21.196Z,13.30
2018-09-02T07:42:49.479Z,13.30
2018-09-02T07:45:18.566Z,13.20
2018-09-02T07:47:46.730Z,13.20
2018-09-02T07:50:14.930Z,13.20
2018-09-02T07:52:42.974Z,13.30
2018-09-02T07:55:11.070Z,13.40
2018-09-02T07:57:39.454Z,13.60
2018-09-02T08:00:09.241Z,13.70
2018-09-02T08:02:37.433Z,13.80
2018-09-02T08:05:06.373Z,14.40
2018-09-02T08:07:35.123Z,15.30
2018-09-02T08:10:03.760Z,16.30
2018-09-02T08:12:33.572Z,16.40
2018-09-02T08:15:02.568Z,16.00
2018-09-02T08:17:30.798Z,15.50
2018-09-02T08:19:59.084Z,15.10
2018-09-02T08:22:28.099Z,14.90
2018-09-02T08:24:56.255Z,14.90
2018-09-02T08:27:24.343Z,14.90
2018-09-02T08:29:53.210Z,15.10
2018-09-02T08:32:21.290Z,15.20
2018-09-02T08:34:49.342Z,15.30
2018-09-02T08:37:17.441Z,15.30
2018-09-02T08:39:45.597Z,15.40
2018-09-02T08:42:13.691Z,15.70
2018-09-02T08:44:41.735Z,15.70
2018-09-02T08:47:10.277Z,15.50
2018-09-02T08:49:38.431Z,15.50
2018-09-02T08:52:06.933Z,15.50
2018-09-02T08:54:37.087Z,15.60
2018-09-02T08:57:05.529Z,15.80
2018-09-02T08:59:33.581Z,16.20
2018-09-02T09:02:02.843Z,16.70
2018-09-02T09:04:31.053Z,17.40
2018-09-02T09:06:59.799Z,17.90
2018-09-02T09:09:27.939Z,18.00
2018-09-02T09:11:56.312Z,18.10
2018-09-02T09:14:24.378Z,17.70
2018-09-02T09:16:52.544Z,17.20
2018-09-02T09:19:20.642Z,16.90
2018-09-02T09:21:48.819Z,16.80
2018-09-02T09:24:17.866Z,16.60
2018-09-02T09:26:46.992Z,16.80
2018-09-02T09:29:16.204Z,16.90
2018-09-02T09:31:45.220Z,16.90
2018-09-02T09:34:13.658Z,16.80
2018-09-02T09:36:41.715Z,16.60
2018-09-02T09:39:10.539Z,16.40
2018-09-02T09:41:38.643Z,16.60
2018-09-02T09:44:07.283Z,16.50
2018-09-02T09:46:36.097Z,16.40
2018-09-02T09:49:04.390Z,16.40
2018-09-02T09:51:32.435Z,16.30
2018-09-02T09:54:00.685Z,16.10
2018-09-02T09:56:28.853Z,16.20
2018-09-02T09:58:57.039Z,16.40
2018-09-02T10:01:25.438Z,16.60
2018-09-02T10:03:53.503Z,16.90
2018-09-02T10:06:21.682Z,16.90
2018-09-02T10:08:49.759Z,16.80
2018-09-02T10:11:17.991Z,16.80
2018-09-02T10:13:46.119Z,16.50
2018-09-02T10:16:14.160Z,16.70
2018-09-02T10:18:42.259Z,16.70
2018-09-02T10:21:10.308Z,16.60
2018-09-02T10:23:38.497Z,16.60
2018-09-02T10:26:06.546Z,16.70
2018-09-02T10:28:34.562Z,16.70
2018-09-02T10:31:02.715Z,16.80
2018-09-02T10:33:30.945Z,16.90
2018-09-02T10:35:59.185Z,17.00
2018-09-02T10:38:27.281Z,17.20
2018-09-02T10:40:55.452Z,17.60
2018-09-02T10:43:23.608Z,17.70
2018-09-02T10:45:51.642Z,17.60
2018-09-02T10:48:19.743Z,17.40
2018-09-02T10:50:47.799Z,17.30
2018-09-02T10:53:15.997Z,17.00
2018-09-02T10:55:44.074Z,16.80
2018-09-02T10:58:12.123Z,16.80
2018-09-02T11:00:40.232Z,17.00
2018-09-02T11:03:08.275Z,16.90
2018-09-02T11:05:36.372Z,16.70
2018-09-02T11:08:04.843Z,16.40
2018-09-02T11:10:32.932Z,16.50
2018-09-02T11:13:01.075Z,16.50
2018-09-02T11:15:29.251Z,16.60
2018-09-02T11:17:57.539Z,16.60
2018-09-02T11:20:25.685Z,17.10
2018-09-02T11:22:53.782Z,17.60
2018-09-02T11:25:21.970Z,18.00
2018-09-02T11:27:50.242Z,18.20
2018-09-02T11:30:18.319Z,18.60
2018-09-02T11:32:46.551Z,18.70
2018-09-02T11:35:14.681Z,18.80
2018-09-02T11:37:42.714Z,18.50
2018-09-02T11:40:18.913Z,18.20
2018-09-02T11:42:47.055Z,18.20
2018-09-02T11:45:15.389Z,18.30
2018-09-02T11:47:44.972Z,18.20
2018-09-02T11:50:13.156Z,18.00
2018-09-02T11:52:41.202Z,18.10
2018-09-02T11:55:09.285Z,18.60
2018-09-02T11:57:37.619Z,18.80
2018-09-02T12:00:05.996Z,19.10
2018-09-02T12:02:34.150Z,19.20
2018-09-02T12:05:02.422Z,19.90
2018-09-02T12:07:31.624Z,20.50
2018-09-02T12:10:00.087Z,20.60
2018-09-02T12:12:28.593Z,20.20
2018-09-02T12:14:56.984Z,20.90
2018-09-02T12:17:35.606Z,21.20
2018-09-02T12:20:08.191Z,20.90
2018-09-02T12:22:45.374Z,20.20
2018-09-02T12:25:31.053Z,19.30
2018-09-02T12:28:14.683Z,18.90
2018-09-02T12:31:00.049Z,18.60
2018-09-02T12:33:46.663Z,19.20
2018-09-02T12:36:30.395Z,19.60
2018-09-02T12:39:11.749Z,19.70
2018-09-02T12:41:45.085Z,19.70
2018-09-02T12:44:13.335Z,19.00
2018-09-02T12:46:41.522Z,19.90
2018-09-02T12:49:09.591Z,20.00
2018-09-02T12:51:39.087Z,19.70
2018-09-02T12:54:07.822Z,19.50
2018-09-02T12:56:39.945Z,19.00
2018-09-02T12:59:08.040Z,18.90
2018-09-02T13:01:36.955Z,18.70
2018-09-02T13:04:08.542Z,18.40
2018-09-02T13:06:36.679Z,18.80
2018-09-02T13:09:09.794Z,19.40
2018-09-02T13:11:41.967Z,19.70
2018-09-02T13:14:12.483Z,19.70
2018-09-02T13:16:43.308Z,20.00
2018-09-02T13:19:12.542Z,19.70
2018-09-02T13:21:42.993Z,19.10
2018-09-02T13:24:14.131Z,19.20
2018-09-02T13:26:43.958Z,19.20
2018-09-02T13:29:13.781Z,18.90
2018-09-02T13:31:43.079Z,18.90
2018-09-02T13:34:13.056Z,18.80
2018-09-02T13:36:43.474Z,18.70
2018-09-02T13:39:12.912Z,18.70
2018-09-02T13:41:44.044Z,18.50
2018-09-02T13:44:12.331Z,18.90
2018-09-02T13:46:40.942Z,19.60
2018-09-02T13:49:10.561Z,20.00
2018-09-02T13:51:42.723Z,19.80
2018-09-02T13:54:12.955Z,19.00
2018-09-02T13:56:43.206Z,19.00
2018-09-02T13:59:12.972Z,18.80
2018-09-02T14:01:43.104Z,18.60
2018-09-02T14:04:11.574Z,19.10
2018-09-02T14:06:40.055Z,19.70
2018-09-02T14:09:12.290Z,19.10
2018-09-02T14:11:40.527Z,19.00
2018-09-02T14:14:08.902Z,18.40
2018-09-02T14:16:39.387Z,18.60
2018-09-02T14:19:09.078Z,18.60
2018-09-02T14:21:37.837Z,18.60
2018-09-02T14:24:06.327Z,18.60
2018-09-02T14:26:36.170Z,18.50
2018-09-02T14:29:04.306Z,19.00
2018-09-02T14:31:34.759Z,19.00
2018-09-02T14:34:04.829Z,19.00
2018-09-02T14:36:37.712Z,18.70
2018-09-02T14:39:08.798Z,18.20
2018-09-02T14:41:37.100Z,17.90
2018-09-02T14:44:05.144Z,17.60
2018-09-02T14:46:43.351Z,17.50
2018-09-02T14:49:13.901Z,17.70
2018-09-02T14:51:44.306Z,17.80
2018-09-02T14:54:14.789Z,18.10
2018-09-02T14:56:46.373Z,18.20
2018-09-02T14:59:17.188Z,18.30
2018-09-02T15:01:48.280Z,18.40
2018-09-02T15:04:16.574Z,18.30
2018-09-02T15:06:44.610Z,18.10
2018-09-02T15:09:12.895Z,18.00
2018-09-02T15:11:40.963Z,18.10
2018-09-02T15:14:10.030Z,18.00
2018-09-02T15:16:43.075Z,17.90
2018-09-02T15:19:23.371Z,17.90
2018-09-02T15:22:04.300Z,17.70
2018-09-02T15:24:43.391Z,17.50
2018-09-02T15:27:24.160Z,17.50
2018-09-02T15:30:03.217Z,17.60
2018-09-02T15:32:38.796Z,17.60
2018-09-02T15:35:15.722Z,17.70
2018-09-02T15:37:51.633Z,18.00
2018-09-02T15:40:29.905Z,18.00
2018-09-02T15:43:07.026Z,17.90
2018-09-02T15:45:45.079Z,17.90
2018-09-02T15:48:21.644Z,18.10
2018-09-02T15:50:56.364Z,17.90
2018-09-02T15:53:32.317Z,18.00
2018-09-02T15:56:13.585Z,17.90
2018-09-02T15:58:51.050Z,17.90
2018-09-02T16:01:27.185Z,18.00
2018-09-02T16:04:02.082Z,18.00
2018-09-02T16:06:39.228Z,18.20
2018-09-02T16:09:15.018Z,18.20
2018-09-02T16:11:52.099Z,17.90
2018-09-02T16:14:27.818Z,17.70
2018-09-02T16:17:04.028Z,17.40
2018-09-02T16:19:39.875Z,17.20
2018-09-02T16:22:17.838Z,16.90
2018-09-02T16:24:55.511Z,16.70
2018-09-02T16:27:33.338Z,16.60
2018-09-02T16:30:11.930Z,16.60
2018-09-02T16:32:50.074Z,16.50
2018-09-02T16:35:27.943Z,16.50
2018-09-02T16:38:04.523Z,16.60
2018-09-02T16:40:38.787Z,16.60
2018-09-02T16:43:15.638Z,16.60
2018-09-02T16:45:55.690Z,16.60
2018-09-02T16:48:31.451Z,16.60
2018-09-02T16:51:09.409Z,16.60
2018-09-02T16:53:48.012Z,16.60
2018-09-02T16:56:24.942Z,16.60
2018-09-02T16:59:02.384Z,16.60
2018-09-02T17:01:39.663Z,16.60
2018-09-02T17:04:20.583Z,16.50
2018-09-02T17:07:00.794Z,16.50
2018-09-02T17:09:40.382Z,16.30
2018-09-02T17:12:17.331Z,16.20
2018-09-02T17:14:55.265Z,16.10
2018-09-02T17:17:32.332Z,16.00
2018-09-02T17:20:10.602Z,15.90
2018-09-02T17:22:50.854Z,15.80
2018-09-02T17:25:30.697Z,15.70
2018-09-02T17:28:09.301Z,15.80
2018-09-02T17:30:44.109Z,15.70
2018-09-02T17:33:18.446Z,15.60
2018-09-02T17:35:58.470Z,15.60
2018-09-02T17:38:39.773Z,15.50
2018-09-02T17:41:21.326Z,15.50
2018-09-02T17:44:00.243Z,15.40
2018-09-02T17:46:38.903Z,15.40
2018-09-02T17:49:19.413Z,15.40
2018-09-02T17:51:57.310Z,15.30
2018-09-02T17:54:36.065Z,15.30
2018-09-02T17:57:10.937Z,15.30
2018-09-02T17:59:48.305Z,15.20
2018-09-02T18:02:25.181Z,15.20
2018-09-02T18:05:02.357Z,15.20
2018-09-02T18:07:42.431Z,15.20
2018-09-02T18:10:19.945Z,15.20
2018-09-02T18:12:57.692Z,15.10
2018-09-02T18:15:36.301Z,15.10
2018-09-02T18:18:15.711Z,15.10
2018-09-02T18:20:54.160Z,15.10
2018-09-02T18:23:33.892Z,15.10
2018-09-02T18:26:10.877Z,15.10
2018-09-02T18:28:49.340Z,15.10
2018-09-02T18:31:30.244Z,15.00
2018-09-02T18:34:07.349Z,15.00
2018-09-02T18:36:41.292Z,14.90
2018-09-02T18:39:15.282Z,14.80
2018-09-02T18:41:48.311Z,14.80
2018-09-02T18:44:21.126Z,14.80
2018-09-02T18:46:55.777Z,14.90
2018-09-02T18:49:29.039Z,14.90
2018-09-02T18:52:00.616Z,14.90
2018-09-02T18:54:32.869Z,14.90
2018-09-02T18:57:12.080Z,14.90
2018-09-02T18:59:47.682Z,14.90
2018-09-02T19:02:26.840Z,14.90
2018-09-02T19:05:05.491Z,14.90
2018-09-02T19:07:43.628Z,14.90
2018-09-02T19:10:22.733Z,14.90
2018-09-02T19:12:59.677Z,15.00
2018-09-02T19:15:35.145Z,14.90
2018-09-02T19:18:10.143Z,14.90
2018-09-02T19:20:45.169Z,15.00
2018-09-02T19:23:23.117Z,15.00
2018-09-02T19:25:58.640Z,14.90
2018-09-02T19:28:36.490Z,14.90
2018-09-02T19:31:12.867Z,14.90
2018-09-02T19:33:47.251Z,14.90
2018-09-02T19:36:22.935Z,14.90
2018-09-02T19:38:59.433Z,14.90
2018-09-02T19:41:34.259Z,14.90
2018-09-02T19:44:09.704Z,14.90
2018-09-02T19:46:44.788Z,14.80
2018-09-02T19:49:20.105Z,14.80
2018-09-02T19:51:56.549Z,14.80
2018-09-02T19:54:34.188Z,14.80
2018-09-02T19:57:12.742Z,14.80
2018-09-02T19:59:53.811Z,14.80
2018-09-02T20:02:32.850Z,14.80
2018-09-02T20:05:14.514Z,14.80
2018-09-02T20:07:58.981Z,14.80
2018-09-02T20:10:37.950Z,14.80
2018-09-02T20:13:17.563Z,14.80
2018-09-02T20:15:59.189Z,14.80
2018-09-02T20:18:39.780Z,14.80
2018-09-02T20:21:19.871Z,14.80
2018-09-02T20:24:02.550Z,14.80
2018-09-02T20:26:44.666Z,14.80
2018-09-02T20:29:26.960Z,14.80
2018-09-02T20:32:05.611Z,14.80
2018-09-02T20:34:43.600Z,14.80
2018-09-02T20:37:22.297Z,14.80
2018-09-02T20:39:57.924Z,14.80
2018-09-02T20:42:37.446Z,14.80
2018-09-02T20:45:18.106Z,14.80
2018-09-02T20:47:55.828Z,14.80
2018-09-02T20:50:34.715Z,14.80
2018-09-02T20:53:13.340Z,14.80
2018-09-02T20:55:54.622Z,14.80
2018-09-02T20:58:33.192Z,14.80
2018-09-02T21:01:12.456Z,14.80
2018-09-02T21:03:51.284Z,14.80
2018-09-02T21:06:32.100Z,14.80
2018-09-02T21:09:18.555Z,14.80
2018-09-02T21:11:58.051Z,14.80
2018-09-02T21:14:39.737Z,14.80
2018-09-02T21:17:23.058Z,14.70
2018-09-02T21:20:04.623Z,14.70
2018-09-02T21:22:43.519Z,14.70
2018-09-02T21:25:25.844Z,14.70
2018-09-02T21:28:05.014Z,14.70
2018-09-02T21:30:45.195Z,14.70
2018-09-02T21:33:24.938Z,14.60
2018-09-02T21:36:06.219Z,14.60
2018-09-02T21:38:46.085Z,14.60
2018-09-02T21:41:19.497Z,14.60
2018-09-02T21:43:52.093Z,14.60
2018-09-02T21:46:25.337Z,14.60
2018-09-02T21:48:57.534Z,14.70
2018-09-02T21:51:30.144Z,14.70
2018-09-02T21:54:02.672Z,14.70
2018-09-02T21:56:36.226Z,14.70
2018-09-02T21:59:07.754Z,14.70
2018-09-02T22:01:38.936Z,14.70
2018-09-02T22:04:09.334Z,14.70
2018-09-02T22:06:39.933Z,14.70
2018-09-02T22:09:13.605Z,14.60
2018-09-02T22:11:44.832Z,14.60
2018-09-02T22:14:16.138Z,14.60
2018-09-02T22:16:49.789Z,14.60
2018-09-02T22:19:23.647Z,14.60
2018-09-02T22:21:55.066Z,14.60
2018-09-02T22:24:25.876Z,14.60
2018-09-02T22:26:53.938Z,14.60
2018-09-02T22:29:25.172Z,14.60
2018-09-02T22:31:56.502Z,14.60
2018-09-02T22:34:27.448Z,14.60
2018-09-02T22:36:58.363Z,14.60
2018-09-02T22:39:29.640Z,14.60
2018-09-02T22:42:00.447Z,14.50
2018-09-02T22:44:28.386Z,14.50
2018-09-02T22:46:56.447Z,14.40
2018-09-02T22:49:24.651Z,14.40
2018-09-02T22:51:52.895Z,14.40
2018-09-02T22:54:21.273Z,14.30
2018-09-02T22:56:49.454Z,14.30
2018-09-02T22:59:17.652Z,14.30
2018-09-02T23:01:45.828Z,14.30
2018-09-02T23:04:14.005Z,14.30
2018-09-02T23:06:42.155Z,14.30
2018-09-02T23:09:10.252Z,14.30
2018-09-02T23:11:38.468Z,14.30
2018-09-02T23:14:06.739Z,14.30
2018-09-02T23:16:34.956Z,14.40
2018-09-02T23:19:03.051Z,14.30
2018-09-02T23:21:31.252Z,14.30
2018-09-02T23:23:59.379Z,14.30
2018-09-02T23:26:27.516Z,14.30
2018-09-02T23:28:55.714Z,14.30
2018-09-02T23:31:23.859Z,14.30
2018-09-02T23:33:52.124Z,14.30
2018-09-02T23:36:20.493Z,14.30
2018-09-02T23:38:48.671Z,14.30
2018-09-02T23:41:16.981Z,14.30
2018-09-02T23:43:45.010Z,14.30
2018-09-02T23:46:13.191Z,14.30
2018-09-02T23:48:41.282Z,14.30
2018-09-02T23:51:09.335Z,14.30
2018-09-02T23:53:37.719Z,14.30
2018-09-02T23:56:06.183Z,14.40
2018-09-02T23:58:34.395Z,14.40
